Time;durP1;ratioP1;P1;durP2;ratioP2;P2;SDS_P1;SDS_P2;PMS_P1;PMS_P2;Temp;Humidity;BMP_temperature;BMP_pressure;BME280_temperature;BME280_humidity;BME280_pressure;Samples;Min_cycle;Max_cycle;Signal;HPM_P1;HPM_P2
2021/09/06 00:00:39;;;;;;;18.80;16.80;;;17.70;99.90;;;;;;5013379;28;20925;-79
2021/09/06 00:03:05;;;;;;;17.23;15.43;;;17.70;99.90;;;;;;5013984;28;20501;-70
2021/09/06 00:05:31;;;;;;;17.27;15.40;;;17.70;99.90;;;;;;5013579;28;20429;-70
2021/09/06 00:07:56;;;;;;;17.07;15.30;;;17.60;99.90;;;;;;5011548;28;20180;-71
2021/09/06 00:10:31;;;;;;;17.27;15.57;;;17.60;99.90;;;;;;5013947;28;20172;-70
2021/09/06 00:12:58;;;;;;;18.03;16.07;;;17.60;99.90;;;;;;5011883;28;20190;-70
2021/09/06 00:15:24;;;;;;;19.83;17.27;;;17.60;99.90;;;;;;4996645;28;20414;-70
2021/09/06 00:17:50;;;;;;;17.43;15.43;;;17.60;99.90;;;;;;5013168;28;20417;-70
2021/09/06 00:20:16;;;;;;;17.63;15.63;;;17.60;99.90;;;;;;5013688;28;20581;-70
2021/09/06 00:22:42;;;;;;;18.97;17.00;;;17.50;99.90;;;;;;5013157;28;20410;-71
2021/09/06 00:25:08;;;;;;;19.50;16.80;;;17.50;99.90;;;;;;5013474;28;20178;-70
2021/09/06 00:27:33;;;;;;;18.50;16.27;;;17.50;99.90;;;;;;5013690;28;20412;-70
2021/09/06 00:29:59;;;;;;;21.50;17.33;;;17.50;99.90;;;;;;5011648;28;20375;-70
2021/09/06 00:32:25;;;;;;;19.90;17.90;;;17.50;99.90;;;;;;5013057;28;20183;-70
2021/09/06 00:34:50;;;;;;;19.93;16.40;;;17.50;99.90;;;;;;5012532;28;20175;-71
2021/09/06 00:37:16;;;;;;;18.27;16.37;;;17.50;99.90;;;;;;5012438;28;20171;-70
2021/09/06 00:39:42;;;;;;;17.43;15.67;;;17.50;99.90;;;;;;5012392;28;20298;-79
2021/09/06 00:42:07;;;;;;;18.07;16.20;;;17.50;99.90;;;;;;5013108;28;20191;-70
2021/09/06 00:44:33;;;;;;;15.87;14.30;;;17.50;99.90;;;;;;5013300;28;20649;-70
2021/09/06 00:47:00;;;;;;;20.73;16.63;;;17.40;99.90;;;;;;5011712;28;20311;-71
2021/09/06 00:49:25;;;;;;;17.53;15.23;;;17.40;99.90;;;;;;5013250;28;20179;-70
2021/09/06 00:51:52;;;;;;;17.43;15.63;;;17.40;99.90;;;;;;5012470;28;20775;-70
2021/09/06 00:54:18;;;;;;;17.87;15.87;;;17.30;99.90;;;;;;5013211;28;20171;-70
2021/09/06 00:56:43;;;;;;;17.00;15.17;;;17.30;99.90;;;;;;5012337;28;20402;-75
2021/09/06 00:59:09;;;;;;;18.10;14.93;;;17.30;99.90;;;;;;5012903;28;20229;-71
2021/09/06 01:01:35;;;;;;;19.67;16.20;;;17.30;99.90;;;;;;5012668;28;20773;-70
2021/09/06 01:04:01;;;;;;;16.77;15.07;;;17.30;99.90;;;;;;5012129;28;20192;-70
2021/09/06 01:06:26;;;;;;;18.17;16.20;;;17.20;99.90;;;;;;5012938;28;20436;-70
2021/09/06 01:08:52;;;;;;;18.17;16.00;;;17.20;99.90;;;;;;5012116;28;20183;-70
2021/09/06 01:11:18;;;;;;;18.27;15.77;;;17.20;99.90;;;;;;5011721;28;20254;-70
2021/09/06 01:13:44;;;;;;;18.07;16.27;;;17.20;99.90;;;;;;5012043;28;20602;-79
2021/09/06 01:16:10;;;;;;;21.30;16.20;;;17.20;99.90;;;;;;5012831;28;20597;-70
2021/09/06 01:18:35;;;;;;;20.43;15.60;;;17.20;99.90;;;;;;5012738;28;20183;-70
2021/09/06 01:21:01;;;;;;;18.33;16.40;;;17.20;99.90;;;;;;5011849;28;20264;-70
2021/09/06 01:23:27;;;;;;;16.70;14.50;;;17.20;99.90;;;;;;5012653;28;20186;-70
2021/09/06 01:25:53;;;;;;;17.43;15.27;;;17.20;99.90;;;;;;5011617;28;20171;-70
2021/09/06 01:28:19;;;;;;;17.50;15.60;;;17.20;99.90;;;;;;5012723;28;20587;-70
2021/09/06 01:30:45;;;;;;;16.83;15.00;;;17.20;99.90;;;;;;5011993;28;20225;-78
2021/09/06 01:33:10;;;;;;;16.57;14.87;;;17.20;99.90;;;;;;5012627;28;20237;-70
2021/09/06 01:35:36;;;;;;;18.07;16.20;;;17.20;99.90;;;;;;5019482;28;20457;-70
2021/09/06 01:38:02;;;;;;;17.83;15.77;;;17.20;99.90;;;;;;5031494;28;20830;-70
2021/09/06 01:40:28;;;;;;;17.13;15.07;;;17.10;99.90;;;;;;5021139;28;20203;-70
2021/09/06 01:42:53;;;;;;;15.53;13.93;;;17.10;99.90;;;;;;5011822;28;20414;-70
2021/09/06 01:45:19;;;;;;;17.43;15.60;;;17.10;99.90;;;;;;5012504;28;20179;-70
2021/09/06 01:47:45;;;;;;;18.87;15.30;;;17.10;99.90;;;;;;5011835;28;20183;-78
2021/09/06 01:50:11;;;;;;;16.77;15.07;;;17.10;99.90;;;;;;5013412;28;20656;-70
2021/09/06 01:52:38;;;;;;;18.13;14.57;;;17.10;99.90;;;;;;5012385;28;20199;-70
2021/09/06 01:55:05;;;;;;;17.73;15.87;;;17.00;99.90;;;;;;5011616;28;21147;-70
2021/09/06 01:57:30;;;;;;;17.20;14.63;;;17.00;99.90;;;;;;5011979;28;20956;-70
2021/09/06 01:59:57;;;;;;;17.60;14.50;;;17.00;99.90;;;;;;5004800;28;20456;-70
2021/09/06 02:02:22;;;;;;;17.00;14.70;;;17.00;99.90;;;;;;5036177;28;20236;-70
2021/09/06 02:04:49;;;;;;;15.20;13.60;;;17.00;99.90;;;;;;5035000;28;20405;-70
2021/09/06 02:07:15;;;;;;;16.07;14.37;;;17.00;99.90;;;;;;5036046;28;20204;-70
2021/09/06 02:09:41;;;;;;;18.20;14.90;;;17.00;99.90;;;;;;5035897;28;20413;-70
2021/09/06 02:12:08;;;;;;;15.73;13.70;;;16.90;99.90;;;;;;5035128;28;20569;-70
2021/09/06 02:14:34;;;;;;;17.87;15.23;;;16.90;99.90;;;;;;5035359;28;20170;-70
2021/09/06 02:17:00;;;;;;;17.43;15.20;;;16.90;99.90;;;;;;5034701;28;20773;-70
2021/09/06 02:19:26;;;;;;;16.57;14.80;;;16.80;99.90;;;;;;5035948;28;20468;-70
2021/09/06 02:21:52;;;;;;;18.40;16.40;;;16.80;99.90;;;;;;5035034;28;20241;-70
2021/09/06 02:24:17;;;;;;;16.30;14.50;;;16.80;99.90;;;;;;5035702;28;20405;-70
2021/09/06 02:26:43;;;;;;;17.17;15.00;;;16.80;99.90;;;;;;5035619;28;20243;-70
2021/09/06 02:29:10;;;;;;;18.43;16.40;;;16.80;99.90;;;;;;5033216;28;20190;-70
2021/09/06 02:31:37;;;;;;;16.90;15.10;;;16.80;99.90;;;;;;5035606;28;20316;-70
2021/09/06 02:34:03;;;;;;;18.33;14.70;;;16.80;99.90;;;;;;5016910;28;20417;-70
2021/09/06 02:36:29;;;;;;;19.50;15.23;;;16.70;99.90;;;;;;5035557;28;20794;-70
2021/09/06 02:38:55;;;;;;;15.93;14.17;;;16.70;99.90;;;;;;5034719;28;20448;-70
2021/09/06 02:41:20;;;;;;;18.37;15.00;;;16.70;99.90;;;;;;5017739;28;20336;-70
2021/09/06 02:43:46;;;;;;;18.70;15.90;;;16.70;99.90;;;;;;5017591;28;20179;-78
2021/09/06 02:46:12;;;;;;;18.20;15.10;;;16.70;99.90;;;;;;5034668;28;20257;-70
2021/09/06 02:48:38;;;;;;;19.63;17.17;;;16.70;99.90;;;;;;5031062;28;20929;-70
2021/09/06 02:51:03;;;;;;;18.00;15.20;;;16.70;99.90;;;;;;5014722;28;20190;-71
2021/09/06 02:53:29;;;;;;;18.13;15.00;;;16.70;99.90;;;;;;5015426;28;20331;-70
2021/09/06 02:55:55;;;;;;;21.10;17.20;;;16.70;99.90;;;;;;5014791;28;20623;-70
2021/09/06 02:58:20;;;;;;;18.40;16.13;;;16.60;99.90;;;;;;5015395;28;20202;-70
2021/09/06 03:00:46;;;;;;;18.77;16.77;;;16.60;99.90;;;;;;4997534;28;20206;-79
2021/09/06 03:03:12;;;;;;;23.37;16.00;;;16.60;99.90;;;;;;4996895;28;20195;-70
2021/09/06 03:05:38;;;;;;;18.07;15.50;;;16.60;99.90;;;;;;4997337;28;20619;-70
2021/09/06 03:08:04;;;;;;;20.20;16.47;;;16.60;99.90;;;;;;5014644;28;20268;-71
2021/09/06 03:10:31;;;;;;;16.20;13.83;;;16.60;99.90;;;;;;4994680;28;20510;-70
2021/09/06 03:12:57;;;;;;;16.70;14.20;;;16.50;99.90;;;;;;4994697;28;20187;-71
2021/09/06 03:15:22;;;;;;;17.17;15.17;;;16.50;99.90;;;;;;4994697;28;20411;-70
2021/09/06 03:17:48;;;;;;;17.23;15.53;;;16.50;99.90;;;;;;4994818;28;20263;-81
2021/09/06 03:20:14;;;;;;;17.00;14.47;;;16.50;99.90;;;;;;4994941;28;20207;-70
2021/09/06 03:22:40;;;;;;;16.50;14.67;;;16.50;99.90;;;;;;4995178;28;20188;-70
2021/09/06 03:25:06;;;;;;;19.03;15.63;;;16.50;99.90;;;;;;4994432;28;20175;-70
2021/09/06 03:27:31;;;;;;;19.13;15.70;;;16.50;99.90;;;;;;4995202;28;20254;-70
2021/09/06 03:29:57;;;;;;;18.67;15.67;;;16.40;99.90;;;;;;5011089;28;20480;-71
2021/09/06 03:32:23;;;;;;;17.60;15.73;;;16.40;99.90;;;;;;5014649;28;20329;-71
2021/09/06 03:34:48;;;;;;;16.43;14.30;;;16.30;99.90;;;;;;5014405;28;20224;-80
2021/09/06 03:37:14;;;;;;;18.17;15.10;;;16.30;99.90;;;;;;5013660;28;20183;-69
2021/09/06 03:39:40;;;;;;;17.37;15.37;;;16.40;99.90;;;;;;5014487;28;20558;-69
2021/09/06 03:42:06;;;;;;;18.90;16.90;;;16.40;99.90;;;;;;5013628;28;20187;-68
2021/09/06 03:44:31;;;;;;;15.57;13.73;;;16.30;99.90;;;;;;5014286;28;20182;-69
2021/09/06 03:46:57;;;;;;;16.80;14.37;;;16.40;99.90;;;;;;5014290;28;20258;-69
2021/09/06 03:49:23;;;;;;;17.67;14.87;;;16.30;99.90;;;;;;5002416;28;20210;-69
2021/09/06 03:51:49;;;;;;;15.37;13.73;;;16.30;99.90;;;;;;4995154;28;20219;-69
2021/09/06 03:54:15;;;;;;;17.40;14.70;;;16.30;99.90;;;;;;4995347;28;20572;-69
2021/09/06 03:56:41;;;;;;;18.17;15.60;;;16.30;99.90;;;;;;4995101;28;20395;-69
2021/09/06 03:59:06;;;;;;;18.77;15.10;;;16.30;99.90;;;;;;4994309;28;20235;-69
2021/09/06 04:01:32;;;;;;;18.70;15.00;;;16.30;99.90;;;;;;4994927;28;20188;-69
2021/09/06 04:03:58;;;;;;;16.40;14.37;;;16.30;99.90;;;;;;4994330;28;20271;-69
2021/09/06 04:06:23;;;;;;;16.23;14.53;;;16.20;99.90;;;;;;4995053;28;20686;-69
2021/09/06 04:08:49;;;;;;;17.37;15.20;;;16.20;99.90;;;;;;4994507;28;20266;-69
2021/09/06 04:11:15;;;;;;;16.50;14.10;;;16.20;99.90;;;;;;4994170;28;20190;-69
2021/09/06 04:13:41;;;;;;;18.53;15.60;;;16.20;99.90;;;;;;4994472;28;20526;-69
2021/09/06 04:16:08;;;;;;;16.97;15.17;;;16.20;99.90;;;;;;4994063;28;20191;-69
2021/09/06 04:18:34;;;;;;;16.63;14.70;;;16.20;99.90;;;;;;4994841;28;20430;-69
2021/09/06 04:21:00;;;;;;;17.63;14.43;;;16.20;99.90;;;;;;4993511;28;21010;-69
2021/09/06 04:23:26;;;;;;;20.43;15.83;;;16.20;99.90;;;;;;4993949;28;20418;-69
2021/09/06 04:25:52;;;;;;;19.17;15.30;;;16.10;99.90;;;;;;4976571;28;20434;-71
2021/09/06 04:28:18;;;;;;;18.47;15.03;;;16.10;99.90;;;;;;4994475;28;20179;-69
2021/09/06 04:30:43;;;;;;;16.70;14.93;;;16.10;99.90;;;;;;4994394;28;20186;-69
2021/09/06 04:33:09;;;;;;;20.83;15.77;;;16.10;99.90;;;;;;4993754;28;20505;-69
2021/09/06 04:35:35;;;;;;;19.30;16.63;;;16.10;99.90;;;;;;5001068;28;20257;-69
2021/09/06 04:38:00;;;;;;;18.20;16.03;;;16.10;99.90;;;;;;5013298;28;20206;-69
2021/09/06 04:40:28;;;;;;;18.47;15.10;;;16.10;99.90;;;;;;5013742;28;20206;-69
2021/09/06 04:42:54;;;;;;;20.70;14.90;;;16.00;99.90;;;;;;5012831;28;20186;-69
2021/09/06 04:45:20;;;;;;;19.43;15.67;;;16.00;99.90;;;;;;5012569;28;20814;-69
2021/09/06 04:47:46;;;;;;;15.67;14.03;;;16.10;99.90;;;;;;5013368;28;20424;-69
2021/09/06 04:50:11;;;;;;;17.20;14.97;;;16.10;99.90;;;;;;5012378;28;20193;-69
2021/09/06 04:52:37;;;;;;;16.90;14.87;;;16.00;99.90;;;;;;5013353;28;20792;-69
2021/09/06 04:55:03;;;;;;;16.77;14.90;;;16.00;99.90;;;;;;5012456;28;20200;-68
2021/09/06 04:57:29;;;;;;;18.00;15.20;;;16.00;99.90;;;;;;5012016;28;20225;-68
2021/09/06 04:59:55;;;;;;;20.57;15.13;;;16.00;99.90;;;;;;5012677;28;20453;-77
2021/09/06 05:02:20;;;;;;;20.47;16.50;;;16.00;99.90;;;;;;5012451;28;20193;-68
2021/09/06 05:04:46;;;;;;;18.97;15.20;;;16.10;99.90;;;;;;5013044;28;20654;-68
2021/09/06 05:07:12;;;;;;;18.43;15.33;;;16.00;99.90;;;;;;5011953;28;20305;-69
2021/09/06 05:09:37;;;;;;;17.27;14.50;;;16.00;99.90;;;;;;5012686;28;20541;-69
2021/09/06 05:12:03;;;;;;;18.00;16.10;;;16.00;99.90;;;;;;5011700;28;20186;-69
2021/09/06 05:14:29;;;;;;;17.80;14.60;;;16.00;99.90;;;;;;5012969;28;20261;-69
2021/09/06 05:16:55;;;;;;;18.00;15.40;;;15.90;99.90;;;;;;5012866;28;20493;-76
2021/09/06 05:19:21;;;;;;;18.70;15.23;;;15.90;99.90;;;;;;5010640;28;20315;-69
2021/09/06 05:21:47;;;;;;;17.97;15.17;;;16.00;99.90;;;;;;5012753;28;20917;-69
2021/09/06 05:24:13;;;;;;;21.30;16.37;;;16.00;99.90;;;;;;5010145;28;20443;-69
2021/09/06 05:26:39;;;;;;;17.63;14.30;;;16.00;99.90;;;;;;5012688;28;20412;-68
2021/09/06 05:29:05;;;;;;;19.40;15.80;;;16.00;99.90;;;;;;5011679;28;20177;-69
2021/09/06 05:31:30;;;;;;;15.90;13.90;;;16.00;99.90;;;;;;5012535;28;20186;-69
2021/09/06 05:33:56;;;;;;;17.57;15.60;;;16.10;99.90;;;;;;5011470;28;20190;-71
2021/09/06 05:36:22;;;;;;;17.60;15.67;;;16.00;99.90;;;;;;5013017;28;20280;-69
2021/09/06 05:38:47;;;;;;;22.90;16.03;;;16.00;99.90;;;;;;5011987;28;20180;-69
2021/09/06 05:41:15;;;;;;;21.07;16.00;;;16.10;99.90;;;;;;5012480;28;20208;-69
2021/09/06 05:43:41;;;;;;;21.67;17.60;;;16.10;99.90;;;;;;5012659;28;20178;-69
2021/09/06 05:46:07;;;;;;;19.90;16.40;;;16.10;99.90;;;;;;5010880;28;20463;-69
2021/09/06 05:48:32;;;;;;;18.87;15.60;;;16.10;99.90;;;;;;5012814;28;20433;-69
2021/09/06 05:50:58;;;;;;;19.80;15.37;;;16.10;99.90;;;;;;5012230;28;20181;-70
2021/09/06 05:53:24;;;;;;;20.77;16.50;;;16.20;99.90;;;;;;5012750;28;20289;-69
2021/09/06 05:55:50;;;;;;;18.77;16.57;;;16.20;99.90;;;;;;5011553;28;20181;-69
2021/09/06 05:58:15;;;;;;;21.13;17.93;;;16.20;99.90;;;;;;5012192;28;20417;-69
2021/09/06 06:00:41;;;;;;;19.80;16.00;;;16.20;99.90;;;;;;5012430;28;20206;-69
2021/09/06 06:03:06;;;;;;;20.70;16.47;;;16.20;99.90;;;;;;5011558;28;20188;-69
2021/09/06 06:05:32;;;;;;;21.07;17.40;;;16.30;99.90;;;;;;5011282;28;20231;-68
2021/09/06 06:07:58;;;;;;;20.30;17.00;;;16.30;99.90;;;;;;5012077;28;20182;-73
2021/09/06 06:10:24;;;;;;;20.10;17.50;;;16.40;99.90;;;;;;5012532;28;20220;-69
2021/09/06 06:12:49;;;;;;;21.83;16.83;;;16.40;99.90;;;;;;5012355;28;20635;-69
2021/09/06 06:15:15;;;;;;;21.53;16.13;;;16.50;99.90;;;;;;5010988;28;20176;-69
2021/09/06 06:17:42;;;;;;;18.73;16.37;;;16.50;99.90;;;;;;5012214;28;20178;-69
2021/09/06 06:20:09;;;;;;;21.27;17.03;;;16.50;99.90;;;;;;5011436;28;20207;-69
2021/09/06 06:22:35;;;;;;;19.77;17.20;;;16.60;99.90;;;;;;5010982;28;20414;-73
2021/09/06 06:25:01;;;;;;;18.73;16.47;;;16.60;99.90;;;;;;5012073;28;20418;-79
2021/09/06 06:27:26;;;;;;;22.13;18.60;;;16.90;99.90;;;;;;5010066;28;20186;-73
2021/09/06 06:29:53;;;;;;;24.10;20.47;;;17.20;99.90;;;;;;5011878;28;20689;-72
2021/09/06 06:32:19;;;;;;;22.43;18.93;;;17.40;99.90;;;;;;5011207;28;20179;-72
2021/09/06 06:34:44;;;;;;;21.50;18.13;;;17.70;99.90;;;;;;5011852;28;20564;-73
2021/09/06 06:37:10;;;;;;;23.40;19.20;;;17.90;99.90;;;;;;5007279;28;20179;-73
2021/09/06 06:39:36;;;;;;;21.90;17.60;;;18.20;99.90;;;;;;4991084;28;20199;-72
2021/09/06 06:42:02;;;;;;;20.70;18.00;;;18.30;99.90;;;;;;4987047;28;20262;-73
2021/09/06 06:44:28;;;;;;;21.80;17.00;;;18.50;99.90;;;;;;4983076;28;20526;-76
2021/09/06 06:46:53;;;;;;;24.60;18.70;;;18.70;99.90;;;;;;4978131;28;20427;-73
2021/09/06 06:49:19;;;;;;;20.50;17.83;;;18.80;99.90;;;;;;4999559;28;20686;-73
2021/09/06 06:51:45;;;;;;;25.33;18.83;;;18.90;99.90;;;;;;4995806;28;20535;-79
2021/09/06 06:54:11;;;;;;;19.63;17.47;;;19.10;99.90;;;;;;4994968;28;20438;-72
2021/09/06 06:56:37;;;;;;;22.00;19.00;;;19.10;99.90;;;;;;4993697;28;20643;-73
2021/09/06 06:59:02;;;;;;;22.47;18.10;;;19.20;99.90;;;;;;5000635;28;20206;-73
2021/09/06 07:01:28;;;;;;;20.93;17.57;;;19.30;99.90;;;;;;4978509;28;20435;-72
2021/09/06 07:03:54;;;;;;;20.27;18.10;;;19.40;99.90;;;;;;4995981;28;20176;-73
2021/09/06 07:06:20;;;;;;;21.23;19.03;;;19.40;99.90;;;;;;4994730;28;20176;-73
2021/09/06 07:08:46;;;;;;;19.50;17.40;;;19.50;99.90;;;;;;4995896;28;20593;-72
2021/09/06 07:11:11;;;;;;;20.57;18.37;;;19.60;99.90;;;;;;4995212;28;20410;-73
2021/09/06 07:13:37;;;;;;;18.80;15.80;;;19.70;99.90;;;;;;4994351;28;20226;-73
2021/09/06 07:16:03;;;;;;;19.37;17.20;;;19.70;99.90;;;;;;4977885;28;20549;-73
2021/09/06 07:18:29;;;;;;;21.53;18.23;;;19.70;99.70;;;;;;4995353;28;20219;-73
2021/09/06 07:20:54;;;;;;;19.47;17.20;;;19.80;99.60;;;;;;4998871;28;20493;-73
2021/09/06 07:23:20;;;;;;;21.30;19.10;;;19.80;99.90;;;;;;4999143;28;20278;-72
2021/09/06 07:25:46;;;;;;;25.83;20.17;;;19.90;99.90;;;;;;4999049;28;20187;-73
2021/09/06 07:28:12;;;;;;;27.47;20.57;;;19.90;99.90;;;;;;4977626;28;20168;-73
2021/09/06 07:30:38;;;;;;;19.63;17.50;;;20.00;99.90;;;;;;4995202;28;20890;-72
2021/09/06 07:33:06;;;;;;;21.10;17.33;;;20.00;99.90;;;;;;4994865;28;20561;-73
2021/09/06 07:35:33;;;;;;;20.17;17.60;;;20.10;99.90;;;;;;5008256;28;20453;-73
2021/09/06 07:37:59;;;;;;;20.50;17.47;;;20.10;99.90;;;;;;5026164;28;20418;-73
2021/09/06 07:40:25;;;;;;;20.30;17.87;;;20.20;99.50;;;;;;5013964;28;20808;-73
2021/09/06 07:42:50;;;;;;;23.37;18.17;;;20.30;99.40;;;;;;4997308;28;20506;-73
2021/09/06 07:45:16;;;;;;;20.50;18.40;;;20.30;99.10;;;;;;5013611;28;20905;-74
2021/09/06 07:47:42;;;;;;;20.37;17.67;;;20.30;99.20;;;;;;5012736;28;20183;-73
2021/09/06 07:50:10;;;;;;;20.57;18.47;;;20.40;99.30;;;;;;5017793;28;20253;-81
2021/09/06 07:52:36;;;;;;;21.43;18.10;;;20.40;99.40;;;;;;5014601;28;20205;-73
2021/09/06 07:55:07;;;;;;;21.63;19.37;;;20.40;99.60;;;;;;5014145;28;20952;-73
2021/09/06 07:57:33;;;;;;;17.83;16.10;;;20.50;99.50;;;;;;5013171;28;20410;-73
2021/09/06 07:59:59;;;;;;;23.00;20.60;;;20.60;99.90;;;;;;5015378;28;20477;-72
2021/09/06 08:02:25;;;;;;;24.37;21.13;;;20.70;99.50;;;;;;5013951;28;20815;-74
2021/09/06 08:04:51;;;;;;;25.20;21.50;;;20.70;99.30;;;;;;5014434;28;20190;-73
2021/09/06 08:07:16;;;;;;;26.00;20.30;;;20.80;99.20;;;;;;5010419;28;20898;-73
2021/09/06 08:09:42;;;;;;;25.37;22.73;;;20.90;99.00;;;;;;5017360;28;20187;-71
2021/09/06 08:12:08;;;;;;;22.40;20.00;;;20.90;98.50;;;;;;5006619;28;20194;-71
2021/09/06 08:14:34;;;;;;;27.40;23.83;;;20.90;98.20;;;;;;5013254;28;20697;-71
2021/09/06 08:17:01;;;;;;;24.43;21.70;;;21.00;98.10;;;;;;5013631;28;20933;-72
2021/09/06 08:19:28;;;;;;;27.17;20.90;;;21.00;98.30;;;;;;5020413;28;20483;-72
2021/09/06 08:21:56;;;;;;;32.40;22.40;;;21.10;98.50;;;;;;5011571;28;20427;-72
2021/09/06 08:24:23;;;;;;;30.07;24.77;;;21.10;98.90;;;;;;5013073;28;20505;-72
2021/09/06 08:26:50;;;;;;;28.60;23.27;;;21.20;99.00;;;;;;5012215;28;20409;-72
2021/09/06 08:29:17;;;;;;;25.97;21.90;;;21.20;99.10;;;;;;5015081;28;20425;-72
2021/09/06 08:31:43;;;;;;;33.47;26.77;;;21.20;98.90;;;;;;5032312;28;20413;-72
2021/09/06 08:34:08;;;;;;;26.57;23.70;;;21.20;99.00;;;;;;5033036;28;20397;-76
2021/09/06 08:36:34;;;;;;;23.80;20.13;;;21.30;99.50;;;;;;5031720;28;20470;-71
2021/09/06 08:39:00;;;;;;;31.90;24.40;;;21.30;99.30;;;;;;5033428;28;20577;-71
2021/09/06 08:41:26;;;;;;;28.00;24.60;;;21.40;99.50;;;;;;5032207;28;20390;-71
2021/09/06 08:43:51;;;;;;;26.93;22.27;;;21.40;99.00;;;;;;5021950;28;20269;-71
2021/09/06 08:46:22;;;;;;;28.20;23.10;;;21.50;99.40;;;;;;5012611;28;20179;-71
2021/09/06 08:48:48;;;;;;;29.57;25.67;;;21.50;99.40;;;;;;5013528;28;20168;-72
2021/09/06 08:51:13;;;;;;;25.50;21.40;;;21.50;99.50;;;;;;5012612;28;20771;-73
2021/09/06 08:53:39;;;;;;;27.40;24.57;;;21.50;99.10;;;;;;5013500;28;20417;-70
2021/09/06 08:56:05;;;;;;;27.30;22.00;;;21.50;98.40;;;;;;5013322;28;20574;-71
2021/09/06 08:58:31;;;;;;;26.03;23.27;;;21.50;97.60;;;;;;5020917;28;20189;-71
2021/09/06 09:00:58;;;;;;;28.07;22.60;;;21.50;97.60;;;;;;5027673;28;20604;-70
2021/09/06 09:03:23;;;;;;;24.30;20.40;;;21.40;98.00;;;;;;5024476;28;20182;-71
2021/09/06 09:06:03;;;;;;;22.40;20.00;;;21.50;97.20;;;;;;5020986;28;20428;-71
2021/09/06 09:08:29;;;;;;;21.37;19.00;;;21.50;96.40;;;;;;5007557;28;20182;-71
2021/09/06 09:11:04;;;;;;;20.50;18.30;;;21.50;95.60;;;;;;5011527;28;20437;-71
2021/09/06 09:13:35;;;;;;;20.67;17.80;;;21.50;95.50;;;;;;5011115;28;20429;-71
2021/09/06 09:16:01;;;;;;;20.83;18.23;;;21.70;95.80;;;;;;5010591;28;20430;-71
2021/09/06 09:18:36;;;;;;;20.23;18.43;;;21.90;97.10;;;;;;5015805;28;20417;-68
2021/09/06 09:21:13;;;;;;;16.33;14.73;;;22.00;96.60;;;;;;5017750;28;20545;-69
2021/09/06 09:23:47;;;;;;;20.03;18.03;;;22.20;95.50;;;;;;5009916;28;20405;-70
2021/09/06 09:26:14;;;;;;;17.60;15.70;;;22.40;94.70;;;;;;5011025;28;20909;-69
2021/09/06 09:28:44;;;;;;;17.67;14.40;;;22.60;92.90;;;;;;5011038;28;20951;-69
2021/09/06 09:31:16;;;;;;;16.50;14.70;;;22.80;94.10;;;;;;5010861;28;20512;-72
2021/09/06 09:33:50;;;;;;;15.27;13.63;;;23.00;94.20;;;;;;5012698;28;20437;-71
2021/09/06 09:36:35;;;;;;;17.00;15.37;;;23.30;94.70;;;;;;5008155;28;20959;-71
2021/09/06 09:39:12;;;;;;;16.67;15.00;;;23.60;93.40;;;;;;5008811;28;20457;-71
2021/09/06 09:41:40;;;;;;;18.33;16.20;;;23.90;93.90;;;;;;5013015;28;20416;-71
2021/09/06 09:44:13;;;;;;;20.33;18.33;;;24.20;93.70;;;;;;5012413;28;20925;-70
2021/09/06 09:46:39;;;;;;;19.83;17.73;;;24.50;92.50;;;;;;5012567;28;20425;-71
2021/09/06 09:49:10;;;;;;;18.20;16.30;;;24.60;86.80;;;;;;5012823;28;20776;-70
2021/09/06 09:51:36;;;;;;;19.33;17.30;;;24.70;90.10;;;;;;5017390;28;20452;-71
2021/09/06 09:54:04;;;;;;;17.63;15.83;;;24.90;86.50;;;;;;5032258;28;20816;-72
2021/09/06 09:56:33;;;;;;;17.23;15.43;;;25.00;86.30;;;;;;5031579;28;20760;-72
2021/09/06 09:58:59;;;;;;;18.87;16.87;;;25.10;86.60;;;;;;5032455;28;20909;-72
2021/09/06 10:01:32;;;;;;;17.33;15.63;;;25.30;82.10;;;;;;5017515;28;20449;-72
2021/09/06 10:04:00;;;;;;;19.67;17.70;;;25.40;87.00;;;;;;5011030;28;20255;-72
2021/09/06 10:06:27;;;;;;;17.70;15.87;;;25.60;83.10;;;;;;5010011;28;20426;-73
2021/09/06 10:08:54;;;;;;;19.13;17.00;;;25.60;79.80;;;;;;5012317;28;20402;-72
2021/09/06 10:11:20;;;;;;;18.53;15.13;;;25.60;82.00;;;;;;5011885;28;20410;-71
2021/09/06 10:13:45;;;;;;;20.17;18.27;;;25.90;85.70;;;;;;5012169;28;20440;-72
2021/09/06 10:16:13;;;;;;;25.57;16.57;;;26.00;83.70;;;;;;5011256;28;20270;-73
2021/09/06 10:18:41;;;;;;;16.50;15.00;;;26.30;84.20;;;;;;5012509;28;20189;-72
2021/09/06 10:21:15;;;;;;;16.30;14.40;;;26.40;82.90;;;;;;5015019;28;20445;-72
2021/09/06 10:23:43;;;;;;;18.13;16.33;;;26.70;84.60;;;;;;5015964;28;20769;-71
2021/09/06 10:26:09;;;;;;;17.13;15.40;;;26.90;79.40;;;;;;5015852;28;20429;-78
2021/09/06 10:28:35;;;;;;;17.20;15.23;;;27.20;81.80;;;;;;5015608;28;20504;-77
2021/09/06 10:31:02;;;;;;;20.07;18.37;;;27.40;80.60;;;;;;5015986;28;20449;-71
2021/09/06 10:33:37;;;;;;;20.10;18.30;;;27.50;77.00;;;;;;5015180;28;20467;-72
2021/09/06 10:36:24;;;;;;;17.47;15.77;;;27.60;75.60;;;;;;5016153;28;20453;-71
2021/09/06 10:39:03;;;;;;;18.27;16.43;;;27.70;74.50;;;;;;5017968;28;20424;-71
2021/09/06 10:41:29;;;;;;;16.57;14.87;;;27.70;73.90;;;;;;5035089;28;20458;-71
2021/09/06 10:44:07;;;;;;;16.80;15.20;;;27.80;72.20;;;;;;5035727;28;20503;-71
2021/09/06 10:46:32;;;;;;;18.07;16.57;;;27.80;74.40;;;;;;5024923;28;20182;-71
2021/09/06 10:49:03;;;;;;;15.67;14.27;;;27.90;78.00;;;;;;5014195;28;20422;-71
2021/09/06 10:51:31;;;;;;;15.50;14.17;;;27.90;74.80;;;;;;5013325;28;20194;-72
2021/09/06 10:53:59;;;;;;;15.87;14.40;;;28.00;74.90;;;;;;5014293;28;20430;-72
2021/09/06 10:56:30;;;;;;;16.60;15.13;;;28.00;70.10;;;;;;5015035;28;20418;-71
2021/09/06 10:58:56;;;;;;;16.73;15.30;;;28.00;76.20;;;;;;5015366;28;20405;-71
2021/09/06 11:01:23;;;;;;;15.13;13.63;;;28.10;68.40;;;;;;5014474;28;20519;-72
2021/09/06 11:03:52;;;;;;;16.43;14.83;;;28.20;72.60;;;;;;5015765;28;20417;-72
2021/09/06 11:06:24;;;;;;;16.20;14.60;;;28.20;73.70;;;;;;5015039;28;20414;-72
2021/09/06 11:08:50;;;;;;;16.77;15.07;;;28.20;72.20;;;;;;5015314;28;20786;-71
2021/09/06 11:11:16;;;;;;;16.63;15.10;;;28.30;74.00;;;;;;5014435;28;20489;-79
2021/09/06 11:13:47;;;;;;;16.03;14.50;;;28.40;72.00;;;;;;5015020;28;20167;-72
2021/09/06 11:16:16;;;;;;;14.17;12.90;;;28.50;71.70;;;;;;5014977;28;20183;-82
2021/09/06 11:18:45;;;;;;;15.00;13.60;;;28.70;69.90;;;;;;5015264;28;20418;-71
2021/09/06 11:21:11;;;;;;;15.10;13.80;;;28.80;64.60;;;;;;5013960;28;20458;-71
2021/09/06 11:23:38;;;;;;;17.00;15.40;;;28.60;66.30;;;;;;5014009;28;20831;-71
2021/09/06 11:26:06;;;;;;;14.07;12.77;;;28.70;73.30;;;;;;5015026;28;20433;-72
2021/09/06 11:28:32;;;;;;;15.37;13.77;;;28.80;69.10;;;;;;5014761;28;20417;-72
2021/09/06 11:30:58;;;;;;;16.23;14.73;;;28.80;66.10;;;;;;5014357;28;20501;-72
2021/09/06 11:33:26;;;;;;;14.70;13.47;;;28.80;65.70;;;;;;5014528;28;20504;-72
2021/09/06 11:35:52;;;;;;;15.50;14.17;;;28.70;66.00;;;;;;5014647;28;20327;-72
2021/09/06 11:38:18;;;;;;;16.33;14.63;;;28.50;67.20;;;;;;5013166;28;20515;-72
2021/09/06 11:40:52;;;;;;;15.93;14.47;;;28.30;69.40;;;;;;5014837;28;20209;-71
2021/09/06 11:43:19;;;;;;;15.00;13.60;;;28.10;68.60;;;;;;5014235;28;20413;-72
2021/09/06 11:45:46;;;;;;;15.87;14.47;;;28.10;69.90;;;;;;5014456;28;20933;-72
2021/09/06 11:48:12;;;;;;;15.10;13.80;;;28.00;71.10;;;;;;5013698;28;20414;-72
2021/09/06 11:50:41;;;;;;;14.90;13.30;;;28.00;69.00;;;;;;5014442;28;20409;-72
2021/09/06 11:53:11;;;;;;;15.27;13.87;;;28.10;70.50;;;;;;5014334;28;20913;-71
2021/09/06 11:55:49;;;;;;;14.90;13.60;;;28.20;69.70;;;;;;5013768;28;20763;-72
2021/09/06 11:58:15;;;;;;;14.30;13.07;;;28.30;69.70;;;;;;5014142;28;20763;-72
2021/09/06 12:00:41;;;;;;;14.00;12.70;;;28.40;67.20;;;;;;5014495;28;20441;-72
2021/09/06 12:03:08;;;;;;;14.53;13.23;;;28.50;68.20;;;;;;5014537;28;20417;-72
2021/09/06 12:05:38;;;;;;;15.00;13.60;;;28.50;66.30;;;;;;5013757;28;20437;-72
2021/09/06 12:08:09;;;;;;;13.10;12.00;;;28.60;67.10;;;;;;5014411;28;20493;-72
2021/09/06 12:10:36;;;;;;;14.50;13.20;;;28.70;65.90;;;;;;5013843;28;20461;-72
2021/09/06 12:13:05;;;;;;;14.63;13.30;;;28.60;64.20;;;;;;5013959;28;20417;-72
2021/09/06 12:15:33;;;;;;;13.63;12.43;;;28.50;66.20;;;;;;5013418;28;20414;-73
2021/09/06 12:18:11;;;;;;;14.90;13.50;;;28.50;66.30;;;;;;5013885;28;20484;-72
2021/09/06 12:20:41;;;;;;;14.53;13.13;;;28.40;67.00;;;;;;5013548;28;20449;-71
2021/09/06 12:23:08;;;;;;;15.53;13.93;;;28.40;63.40;;;;;;5014184;28;20416;-72
2021/09/06 12:25:35;;;;;;;15.40;13.80;;;28.40;64.80;;;;;;5013103;28;20973;-73